createdAt,value
2018-09-08T00:00:16.383Z,12.17
2018-09-08T00:02:44.919Z,12.17
2018-09-08T00:05:13.484Z,12.15
2018-09-08T00:07:42.118Z,12.14
2018-09-08T00:10:11.491Z,12.15
2018-09-08T00:12:40.111Z,12.10
2018-09-08T00:15:13.966Z,12.08
2018-09-08T00:17:47.709Z,12.13
2018-09-08T00:20:21.456Z,12.15
2018-09-08T00:22:55.388Z,12.11
2018-09-08T00:25:29.342Z,12.16
2018-09-08T00:28:07.804Z,12.14
2018-09-08T00:30:36.393Z,12.09
2018-09-08T00:33:04.921Z,12.13
2018-09-08T00:35:33.584Z,12.11
2018-09-08T00:38:02.053Z,11.91
2018-09-08T00:40:30.648Z,11.74
2018-09-08T00:42:59.137Z,11.93
2018-09-08T00:45:27.633Z,11.94
2018-09-08T00:47:56.175Z,11.80
2018-09-08T00:50:24.641Z,11.86
2018-09-08T00:52:53.241Z,11.97
2018-09-08T00:55:21.752Z,12.12
2018-09-08T00:57:50.284Z,12.17
2018-09-08T01:00:18.858Z,12.20
2018-09-08T01:02:47.359Z,12.20
2018-09-08T01:05:15.962Z,12.26
2018-09-08T01:07:44.557Z,12.39
2018-09-08T01:10:13.084Z,12.38
2018-09-08T01:12:41.707Z,12.34
2018-09-08T01:15:10.273Z,12.30
2018-09-08T01:17:38.748Z,12.23
2018-09-08T01:20:07.486Z,12.21
2018-09-08T01:22:36.001Z,12.12
2018-09-08T01:25:04.526Z,12.07
2018-09-08T01:27:33.043Z,12.08
2018-09-08T01:30:01.699Z,11.96
2018-09-08T01:32:30.957Z,11.96
2018-09-08T01:34:59.533Z,11.88
2018-09-08T01:37:28.144Z,12.01
2018-09-08T01:39:56.657Z,12.06
2018-09-08T01:42:25.200Z,12.04
2018-09-08T01:44:53.707Z,12.10
2018-09-08T01:47:22.244Z,12.09
2018-09-08T01:49:50.709Z,12.04
2018-09-08T01:52:19.225Z,12.09
2018-09-08T01:54:47.777Z,12.09
2018-09-08T01:57:16.355Z,12.09
2018-09-08T01:59:44.969Z,12.06
2018-09-08T02:02:13.492Z,12.06
2018-09-08T02:04:42.166Z,12.09
2018-09-08T02:07:10.646Z,12.08
2018-09-08T02:09:39.158Z,12.17
2018-09-08T02:12:07.671Z,12.13
2018-09-08T02:14:36.209Z,12.17
2018-09-08T02:17:04.693Z,12.18
2018-09-08T02:19:33.219Z,12.18
2018-09-08T02:22:01.766Z,12.12
2018-09-08T02:24:30.722Z,12.13
2018-09-08T02:26:59.335Z,12.17
2018-09-08T02:29:27.844Z,12.17
2018-09-08T02:31:56.429Z,12.14
2018-09-08T02:34:25.134Z,12.21
2018-09-08T02:36:53.622Z,12.29
2018-09-08T02:39:22.157Z,12.27
2018-09-08T02:41:50.745Z,12.38
2018-09-08T02:44:19.273Z,12.44
2018-09-08T02:46:48.197Z,12.51
2018-09-08T02:49:17.317Z,12.59
2018-09-08T02:51:44.591Z,12.66
2018-09-08T02:54:11.954Z,12.68
2018-09-08T02:56:39.266Z,12.65
2018-09-08T02:59:06.530Z,12.69
2018-09-08T03:01:34.158Z,12.73
2018-09-08T03:04:01.427Z,12.81
2018-09-08T03:06:28.711Z,12.82
2018-09-08T03:08:56.013Z,12.84
2018-09-08T03:11:23.278Z,12.87
2018-09-08T03:13:50.593Z,12.93
2018-09-08T03:16:17.881Z,12.96
2018-09-08T03:18:45.156Z,12.92
2018-09-08T03:21:12.445Z,12.92
2018-09-08T03:23:40.024Z,12.94
2018-09-08T03:26:07.281Z,12.97
2018-09-08T03:28:34.545Z,12.89
2018-09-08T03:31:01.864Z,12.91
2018-09-08T03:33:29.136Z,12.94
2018-09-08T03:35:56.707Z,12.88
2018-09-08T03:38:23.971Z,12.85
2018-09-08T03:40:51.253Z,12.84
2018-09-08T03:43:18.573Z,12.86
2018-09-08T03:45:45.855Z,12.84
2018-09-08T03:48:13.146Z,12.71
2018-09-08T03:50:40.439Z,12.75
2018-09-08T03:53:07.725Z,12.70
2018-09-08T03:55:35.038Z,12.57
2018-09-08T03:58:02.314Z,12.52
2018-09-08T04:00:29.611Z,12.43
2018-09-08T04:02:58.137Z,12.39
2018-09-08T04:05:26.655Z,12.33
2018-09-08T04:07:55.419Z,12.33
2018-09-08T04:10:24.263Z,12.31
2018-09-08T04:12:53.546Z,12.25
2018-09-08T04:15:22.216Z,12.23
2018-09-08T04:17:50.879Z,12.11
2018-09-08T04:20:19.379Z,11.98
2018-09-08T04:22:47.907Z,11.91
2018-09-08T04:25:16.861Z,11.86
2018-09-08T04:27:45.351Z,11.79
2018-09-08T04:30:13.877Z,11.71
2018-09-08T04:32:42.390Z,11.76
2018-09-08T04:35:10.875Z,11.68
2018-09-08T04:37:39.345Z,11.68
2018-09-08T04:40:07.863Z,11.64
2018-09-08T04:42:36.341Z,11.57
2018-09-08T04:45:04.872Z,11.42
2018-09-08T04:47:33.375Z,11.42
2018-09-08T04:50:01.932Z,11.43
2018-09-08T04:52:30.457Z,11.40
2018-09-08T04:54:58.950Z,11.30
2018-09-08T04:57:27.485Z,11.21
2018-09-08T04:59:55.988Z,11.30
2018-09-08T05:02:25.137Z,11.22
2018-09-08T05:04:53.655Z,11.32
2018-09-08T05:07:22.141Z,11.20
2018-09-08T05:09:50.726Z,11.16
2018-09-08T05:12:19.231Z,11.22
2018-09-08T05:14:47.793Z,11.20
2018-09-08T05:17:16.407Z,11.23
2018-09-08T05:19:45.079Z,11.19
2018-09-08T05:22:13.565Z,11.18
2018-09-08T05:24:42.209Z,11.16
2018-09-08T05:27:10.911Z,11.18
2018-09-08T05:29:39.467Z,11.15
2018-09-08T05:32:08.172Z,11.18
2018-09-08T05:34:36.768Z,11.23
2018-09-08T05:37:05.381Z,11.22
2018-09-08T05:39:34.078Z,11.25
2018-09-08T05:42:02.645Z,11.30
2018-09-08T05:44:31.184Z,11.34
2018-09-08T05:46:59.708Z,11.36
2018-09-08T05:49:28.218Z,11.39
2018-09-08T05:51:56.810Z,11.46
2018-09-08T05:54:25.336Z,11.47
2018-09-08T05:56:53.908Z,11.54
2018-09-08T05:59:22.393Z,11.58
2018-09-08T06:01:50.968Z,11.62
2018-09-08T06:04:19.501Z,11.68
2018-09-08T06:06:48.247Z,11.71
2018-09-08T06:09:16.856Z,11.79
2018-09-08T06:11:45.344Z,11.83
2018-09-08T06:14:13.854Z,11.91
2018-09-08T06:16:42.344Z,11.99
2018-09-08T06:19:10.901Z,12.06
2018-09-08T06:21:39.529Z,12.13
2018-09-08T06:24:08.085Z,12.23
2018-09-08T06:26:36.621Z,12.25
2018-09-08T06:29:05.130Z,12.36
2018-09-08T06:31:33.772Z,12.47
2018-09-08T06:34:02.358Z,12.50
2018-09-08T06:36:30.903Z,12.55
2018-09-08T06:38:59.511Z,12.65
2018-09-08T06:41:28.074Z,12.72
2018-09-08T06:43:57.061Z,12.73
2018-09-08T06:46:25.559Z,12.89
2018-09-08T06:48:54.124Z,13.01
2018-09-08T06:51:22.711Z,13.16
2018-09-08T06:53:51.180Z,13.26
2018-09-08T06:56:19.699Z,13.43
2018-09-08T06:58:48.214Z,13.58
2018-09-08T07:01:16.920Z,13.64
2018-09-08T07:03:45.518Z,13.82
2018-09-08T07:06:14.036Z,13.86
2018-09-08T07:08:42.624Z,14.02
2018-09-08T07:11:11.293Z,14.21
2018-09-08T07:13:39.819Z,14.27
2018-09-08T07:16:08.979Z,14.43
2018-09-08T07:18:38.312Z,14.57
2018-09-08T07:21:06.815Z,14.69
2018-09-08T07:23:35.423Z,14.78
2018-09-08T07:26:04.248Z,14.59
2018-09-08T07:28:33.460Z,14.84
2018-09-08T07:31:02.190Z,15.05
2018-09-08T07:33:31.116Z,15.12
2018-09-08T07:35:59.629Z,15.28
2018-09-08T07:38:28.240Z,15.42
2018-09-08T07:40:56.733Z,15.29
2018-09-08T07:43:25.249Z,15.25
2018-09-08T07:45:53.838Z,15.38
2018-09-08T07:48:22.448Z,15.59
2018-09-08T07:50:51.065Z,15.58
2018-09-08T07:53:19.645Z,15.74
2018-09-08T07:55:48.138Z,15.61
2018-09-08T07:58:16.628Z,15.69
2018-09-08T08:00:45.175Z,15.63
2018-09-08T08:03:13.828Z,15.36
2018-09-08T08:05:42.406Z,15.55
2018-09-08T08:08:10.944Z,15.34
2018-09-08T08:10:39.516Z,15.56
2018-09-08T08:13:08.067Z,15.61
2018-09-08T08:15:36.844Z,15.74
2018-09-08T08:18:05.445Z,15.82
2018-09-08T08:20:34.063Z,15.82
2018-09-08T08:23:02.614Z,15.84
2018-09-08T08:25:31.182Z,15.85
2018-09-08T08:27:59.754Z,15.77
2018-09-08T08:30:28.330Z,15.80
2018-09-08T08:32:56.803Z,16.09
2018-09-08T08:35:25.370Z,16.32
2018-09-08T08:37:53.924Z,16.40
2018-09-08T08:40:22.531Z,16.64
2018-09-08T08:42:51.040Z,16.88
2018-09-08T08:45:19.731Z,16.97
2018-09-08T08:47:48.234Z,17.18
2018-09-08T08:50:28.088Z,17.38
2018-09-08T08:53:07.866Z,17.35
2018-09-08T08:55:36.388Z,17.43
2018-09-08T08:58:04.885Z,17.61
2018-09-08T09:00:33.489Z,17.87
2018-09-08T09:03:02.008Z,18.01
2018-09-08T09:05:30.632Z,18.26
2018-09-08T09:07:59.156Z,18.00
2018-09-08T09:10:27.881Z,18.19
2018-09-08T09:12:56.458Z,18.30
2018-09-08T09:15:25.306Z,18.50
2018-09-08T09:17:53.603Z,18.30
2018-09-08T09:20:33.318Z,18.74
2018-09-08T09:23:18.611Z,18.76
2018-09-08T09:25:46.784Z,18.50
2018-09-08T09:28:15.299Z,18.80
2018-09-08T09:30:43.817Z,18.71
2018-09-08T09:33:12.334Z,18.42
2018-09-08T09:35:40.868Z,18.42
2018-09-08T09:38:09.520Z,18.69
2018-09-08T09:40:38.046Z,18.89
2018-09-08T09:43:06.905Z,18.97
2018-09-08T09:45:35.642Z,18.74
2018-09-08T09:48:04.173Z,18.67
2018-09-08T09:50:32.799Z,19.10
2018-09-08T09:53:01.319Z,19.46
2018-09-08T09:55:29.800Z,19.31
2018-09-08T09:57:58.363Z,19.06
2018-09-08T10:00:32.141Z,19.27
2018-09-08T10:03:05.773Z,19.41
2018-09-08T10:05:34.751Z,19.20
2018-09-08T10:08:03.656Z,19.19
2018-09-08T10:10:32.202Z,19.04
2018-09-08T10:13:00.785Z,19.16
2018-09-08T10:15:29.307Z,19.15
2018-09-08T10:17:57.800Z,18.87
2018-09-08T10:20:26.297Z,19.19
2018-09-08T10:22:54.903Z,19.10
2018-09-08T10:25:23.409Z,19.69
2018-09-08T10:27:51.964Z,19.62
2018-09-08T10:30:20.725Z,19.62
2018-09-08T10:32:49.230Z,19.71
2018-09-08T10:35:17.828Z,19.88
2018-09-08T10:37:46.527Z,19.76
2018-09-08T10:40:16.738Z,19.79
2018-09-08T10:42:45.261Z,19.56
2018-09-08T10:45:13.763Z,19.80
2018-09-08T10:47:42.445Z,19.81
2018-09-08T10:50:11.909Z,19.56
2018-09-08T10:52:48.820Z,19.54
2018-09-08T10:55:17.350Z,19.63
2018-09-08T10:57:45.856Z,19.88
2018-09-08T11:00:15.883Z,19.78
2018-09-08T11:02:44.663Z,19.74
2018-09-08T11:05:12.969Z,19.38
2018-09-08T11:07:41.533Z,19.57
2018-09-08T11:10:10.073Z,19.71
2018-09-08T11:12:38.640Z,19.74
2018-09-08T11:15:08.392Z,19.64
2018-09-08T11:17:36.898Z,19.44
2018-09-08T11:20:06.564Z,19.71
2018-09-08T11:22:35.068Z,19.89
2018-09-08T11:25:03.634Z,19.89
2018-09-08T11:27:32.214Z,19.77
2018-09-08T11:30:01.020Z,19.85
2018-09-08T11:32:29.885Z,19.87
2018-09-08T11:37:26.176Z,19.68
2018-09-08T11:39:54.666Z,19.53
2018-09-08T11:42:23.499Z,19.71
2018-09-08T11:44:52.169Z,19.33
2018-09-08T11:47:20.660Z,19.74
2018-09-08T11:49:49.241Z,19.26
2018-09-08T11:52:17.879Z,19.52
2018-09-08T11:54:46.377Z,19.44
2018-09-08T11:57:14.977Z,19.63
2018-09-08T11:59:43.557Z,19.71
2018-09-08T12:02:12.139Z,19.96
2018-09-08T12:04:40.591Z,20.23
2018-09-08T12:07:09.088Z,20.40
2018-09-08T12:09:37.650Z,20.35
2018-09-08T12:12:06.416Z,20.29
2018-09-08T12:14:34.974Z,20.95
2018-09-08T12:17:03.746Z,20.24
2018-09-08T12:19:32.294Z,19.85
2018-09-08T12:22:00.856Z,20.48
2018-09-08T12:24:29.663Z,20.76
2018-09-08T12:26:58.143Z,20.23
2018-09-08T12:29:26.624Z,21.12
2018-09-08T12:31:55.195Z,22.87
2018-09-08T12:34:23.737Z,22.49
2018-09-08T12:36:52.548Z,23.23
2018-09-08T12:39:21.117Z,22.72
2018-09-08T12:41:49.601Z,22.21
2018-09-08T12:44:18.135Z,22.77
2018-09-08T12:46:46.632Z,22.30
2018-09-08T12:49:15.127Z,22.65
2018-09-08T12:51:43.628Z,22.43
2018-09-08T12:54:12.161Z,23.44
2018-09-08T12:56:40.684Z,24.55
2018-09-08T12:59:09.234Z,23.11
2018-09-08T13:01:37.710Z,23.12
2018-09-08T13:04:06.321Z,24.86
2018-09-08T13:06:34.818Z,23.84
2018-09-08T13:09:03.671Z,24.07
2018-09-08T13:11:32.223Z,24.97
2018-09-08T13:14:00.810Z,24.16
2018-09-08T13:16:29.298Z,23.38
2018-09-08T13:18:57.828Z,22.27
2018-09-08T13:21:26.342Z,21.19
2018-09-08T13:23:54.908Z,21.56
2018-09-08T13:26:23.523Z,21.55
2018-09-08T13:28:52.075Z,20.65
2018-09-08T13:31:20.618Z,21.26
2018-09-08T13:33:49.236Z,21.72
2018-09-08T13:36:17.790Z,21.66
2018-09-08T13:38:46.345Z,22.34
2018-09-08T13:41:14.961Z,22.17
2018-09-08T13:43:43.657Z,20.99
2018-09-08T13:46:12.207Z,21.78
2018-09-08T13:48:40.843Z,21.74
2018-09-08T13:51:09.685Z,23.01
2018-09-08T13:53:38.400Z,24.03
2018-09-08T13:56:07.212Z,25.46
2018-09-08T13:58:35.742Z,24.04
2018-09-08T14:01:04.413Z,22.88
2018-09-08T14:03:32.893Z,22.90
2018-09-08T14:06:01.419Z,23.97
2018-09-08T14:08:29.941Z,24.86
2018-09-08T14:10:58.497Z,25.79
2018-09-08T14:13:27.459Z,26.37
2018-09-08T14:15:55.969Z,24.96
2018-09-08T14:18:24.497Z,25.68
2018-09-08T14:20:52.999Z,25.99
2018-09-08T14:23:21.530Z,25.67
2018-09-08T14:25:50.118Z,22.54
2018-09-08T14:28:18.655Z,22.38
2018-09-08T14:30:47.142Z,20.85
2018-09-08T14:33:15.640Z,21.20
2018-09-08T14:35:44.161Z,20.86
2018-09-08T14:38:12.775Z,20.72
2018-09-08T14:40:41.618Z,20.67
2018-09-08T14:43:10.155Z,20.52
2018-09-08T14:45:38.702Z,20.58
2018-09-08T14:48:07.239Z,20.52
2018-09-08T14:50:35.744Z,20.68
2018-09-08T14:53:04.393Z,20.94
2018-09-08T14:55:33.026Z,20.97
2018-09-08T14:58:01.668Z,20.60
2018-09-08T15:00:30.377Z,20.74
2018-09-08T15:02:58.992Z,21.13
2018-09-08T15:05:27.481Z,20.78
2018-09-08T15:07:56.050Z,21.15
2018-09-08T15:10:24.905Z,21.06
2018-09-08T15:12:53.488Z,21.04
2018-09-08T15:15:22.088Z,20.44
2018-09-08T15:17:50.624Z,20.94
2018-09-08T15:20:19.175Z,20.64
2018-09-08T15:22:47.659Z,20.56
2018-09-08T15:25:16.206Z,20.43
2018-09-08T15:27:44.732Z,20.27
2018-09-08T15:30:13.237Z,19.70
2018-09-08T15:32:41.884Z,19.45
2018-09-08T15:35:10.417Z,19.46
2018-09-08T15:37:38.961Z,19.75
2018-09-08T15:40:07.613Z,19.87
2018-09-08T15:42:36.136Z,19.85
2018-09-08T15:45:04.801Z,19.89
2018-09-08T15:47:33.316Z,19.73
2018-09-08T15:50:01.803Z,19.92
2018-09-08T15:52:30.492Z,19.97
2018-09-08T15:54:59.062Z,20.14
2018-09-08T15:57:27.820Z,19.86
2018-09-08T15:59:56.350Z,19.83
2018-09-08T16:02:25.048Z,19.66
2018-09-08T16:04:53.592Z,19.52
2018-09-08T16:07:22.305Z,19.22
2018-09-08T16:09:51.208Z,19.38
2018-09-08T16:12:19.706Z,19.37
2018-09-08T16:14:48.384Z,19.20
2018-09-08T16:17:16.972Z,19.36
2018-09-08T16:19:45.556Z,19.37
2018-09-08T16:22:14.212Z,19.25
2018-09-08T16:24:42.837Z,19.16
2018-09-08T16:27:11.408Z,19.15
2018-09-08T16:29:40.284Z,19.12
2018-09-08T16:32:08.862Z,19.22
2018-09-08T16:34:37.357Z,18.91
2018-09-08T16:37:05.939Z,19.05
2018-09-08T16:39:34.489Z,19.03
2018-09-08T16:42:03.269Z,19.13
2018-09-08T16:44:31.792Z,18.67
2018-09-08T16:47:00.426Z,18.81
2018-09-08T16:49:28.976Z,18.68
2018-09-08T16:51:57.887Z,18.41
2018-09-08T16:54:26.620Z,18.20
2018-09-08T16:56:55.217Z,18.32
2018-09-08T16:59:23.704Z,18.37
2018-09-08T17:01:52.233Z,18.40
2018-09-08T17:04:20.767Z,18.43
2018-09-08T17:06:49.508Z,18.17
2018-09-08T17:09:18.011Z,18.11
2018-09-08T17:11:46.525Z,18.13
2018-09-08T17:14:15.238Z,18.17
2018-09-08T17:16:43.773Z,18.07
2018-09-08T17:19:12.466Z,17.84
2018-09-08T17:21:40.968Z,17.74
2018-09-08T17:24:09.589Z,17.69
2018-09-08T17:26:38.291Z,17.68
2018-09-08T17:29:06.855Z,17.67
2018-09-08T17:31:35.459Z,17.54
2018-09-08T17:34:04.082Z,17.60
2018-09-08T17:36:32.689Z,17.72
2018-09-08T17:39:01.420Z,17.54
2018-09-08T17:41:30.004Z,17.47
2018-09-08T17:43:58.578Z,17.45
2018-09-08T17:46:27.142Z,17.50
2018-09-08T17:48:55.711Z,17.30
2018-09-08T17:51:24.454Z,17.36
2018-09-08T17:53:53.069Z,17.24
2018-09-08T17:56:21.747Z,17.28
2018-09-08T17:58:50.514Z,17.16
2018-09-08T18:01:20.056Z,17.00
2018-09-08T18:03:49.687Z,17.06
2018-09-08T18:06:18.353Z,17.00
2018-09-08T18:08:46.910Z,16.98
2018-09-08T18:11:15.497Z,16.94
2018-09-08T18:13:44.080Z,16.91
2018-09-08T18:16:12.701Z,16.77
2018-09-08T18:18:41.396Z,16.82
2018-09-08T18:21:10.050Z,16.76
2018-09-08T18:23:39.458Z,16.63
2018-09-08T18:26:08.042Z,16.65
2018-09-08T18:28:36.560Z,16.70
2018-09-08T18:31:05.429Z,16.59
2018-09-08T18:33:33.958Z,16.52
2018-09-08T18:36:02.792Z,16.48
2018-09-08T18:38:31.634Z,16.49
2018-09-08T18:41:00.150Z,16.39
2018-09-08T18:43:28.745Z,16.34
2018-09-08T18:45:57.711Z,16.33
2018-09-08T18:48:26.345Z,16.42
2018-09-08T18:50:54.860Z,16.45
2018-09-08T18:53:23.650Z,16.46
2018-09-08T18:55:52.214Z,16.56
2018-09-08T18:58:21.007Z,16.67
2018-09-08T19:00:49.654Z,16.54
2018-09-08T19:03:18.289Z,16.63
2018-09-08T19:05:46.855Z,16.43
2018-09-08T19:08:15.421Z,16.53
2018-09-08T19:10:44.063Z,16.48
2018-09-08T19:13:12.582Z,16.38
2018-09-08T19:15:41.101Z,16.53
2018-09-08T19:18:09.681Z,16.54
2018-09-08T19:20:40.554Z,16.42
2018-09-08T19:23:09.154Z,16.25
2018-09-08T19:25:38.001Z,16.12
2018-09-08T19:28:07.100Z,15.96
2018-09-08T19:30:35.647Z,15.97
2018-09-08T19:33:04.240Z,15.88
2018-09-08T19:35:36.679Z,15.75
2018-09-08T19:38:05.215Z,15.68
2018-09-08T19:40:39.102Z,15.64
2018-09-08T19:43:07.731Z,15.65
2018-09-08T19:45:36.275Z,15.69
2018-09-08T19:48:06.670Z,15.67
2018-09-08T19:50:35.534Z,15.70
2018-09-08T19:53:09.128Z,15.74
2018-09-08T19:55:37.711Z,15.70
2018-09-08T19:58:11.512Z,15.74
2018-09-08T20:00:40.074Z,15.68
2018-09-08T20:03:08.708Z,15.49
2018-09-08T20:05:37.341Z,15.52
2018-09-08T20:08:06.125Z,15.54
2018-09-08T20:10:34.646Z,15.61
2018-09-08T20:13:03.216Z,15.65
2018-09-08T20:15:31.754Z,15.74
2018-09-08T20:18:00.375Z,15.79
2018-09-08T20:20:29.196Z,15.68
2018-09-08T20:22:57.777Z,15.71
2018-09-08T20:25:26.325Z,15.82
2018-09-08T20:27:54.902Z,15.74
2018-09-08T20:30:23.456Z,15.64
2018-09-08T20:32:52.081Z,15.57
2018-09-08T20:35:20.638Z,15.45
2018-09-08T20:37:49.175Z,15.51
2018-09-08T20:40:17.724Z,15.57
2018-09-08T20:42:46.221Z,15.59
2018-09-08T20:45:14.750Z,15.61
2018-09-08T20:47:43.420Z,15.43
2018-09-08T20:50:11.917Z,15.51
2018-09-08T20:52:40.838Z,15.56
2018-09-08T20:55:09.356Z,15.53
2018-09-08T20:57:37.946Z,15.55
2018-09-08T21:00:06.620Z,15.57
2018-09-08T21:02:35.094Z,15.54
2018-09-08T21:05:03.698Z,15.64
2018-09-08T21:07:32.279Z,15.60
2018-09-08T21:10:00.902Z,15.60
2018-09-08T21:12:29.439Z,15.55
2018-09-08T21:14:57.997Z,15.58
2018-09-08T21:17:26.480Z,15.53
2018-09-08T21:19:55.224Z,15.52
2018-09-08T21:22:23.738Z,15.54
2018-09-08T21:24:52.353Z,15.44
2018-09-08T21:27:21.272Z,15.59
2018-09-08T21:29:49.829Z,15.43
2018-09-08T21:32:18.364Z,15.44
2018-09-08T21:34:46.914Z,15.44
2018-09-08T21:37:15.477Z,15.34
2018-09-08T21:39:44.458Z,15.21
2018-09-08T21:42:13.015Z,15.18
2018-09-08T21:44:41.528Z,15.28
2018-09-08T21:47:10.092Z,15.26
2018-09-08T21:49:38.644Z,15.21
2018-09-08T21:52:07.271Z,15.27
2018-09-08T21:54:35.854Z,15.29
2018-09-08T21:57:04.870Z,15.15
2018-09-08T21:59:33.441Z,15.03
2018-09-08T22:02:02.036Z,14.92
2018-09-08T22:04:30.665Z,14.83
2018-09-08T22:06:59.346Z,14.78
2018-09-08T22:09:27.889Z,14.88
2018-09-08T22:11:56.427Z,14.67
2018-09-08T22:14:25.191Z,14.64
2018-09-08T22:16:53.725Z,14.55
2018-09-08T22:19:22.244Z,14.60
2018-09-08T22:21:50.834Z,14.45
2018-09-08T22:24:19.454Z,14.31
2018-09-08T22:26:47.993Z,14.47
2018-09-08T22:29:16.544Z,14.52
2018-09-08T22:31:45.050Z,14.42
2018-09-08T22:34:13.569Z,14.46
2018-09-08T22:36:42.051Z,14.35
2018-09-08T22:39:10.743Z,14.39
2018-09-08T22:41:39.832Z,14.30
2018-09-08T22:44:08.451Z,14.26
2018-09-08T22:46:36.988Z,14.17
2018-09-08T22:49:06.139Z,14.04
2018-09-08T22:51:34.717Z,13.89
2018-09-08T22:54:03.561Z,13.85
2018-09-08T22:56:32.809Z,13.76
2018-09-08T22:59:01.523Z,13.61
2018-09-08T23:01:30.090Z,13.65
2018-09-08T23:03:58.623Z,13.64
2018-09-08T23:06:27.416Z,13.54
2018-09-08T23:08:55.959Z,13.41
2018-09-08T23:11:24.468Z,13.43
2018-09-08T23:13:52.962Z,13.36
2018-09-08T23:16:21.468Z,13.29
2018-09-08T23:18:49.974Z,13.30
2018-09-08T23:21:18.501Z,13.30
2018-09-08T23:23:47.122Z,13.32
2018-09-08T23:26:15.677Z,13.25
2018-09-08T23:28:44.245Z,13.20
2018-09-08T23:31:12.761Z,13.31
2018-09-08T23:33:41.329Z,13.24
2018-09-08T23:36:09.901Z,13.23
2018-09-08T23:38:38.685Z,13.18
2018-09-08T23:41:07.191Z,13.11
2018-09-08T23:43:36.001Z,13.01
2018-09-08T23:46:04.555Z,12.87
2018-09-08T23:48:33.158Z,12.78
2018-09-08T23:51:02.116Z,12.79
2018-09-08T23:53:30.966Z,12.83
2018-09-08T23:55:59.630Z,12.79
2018-09-08T23:58:28.155Z,12.89
